In Rescue
 
Open Full Screen Window  High Contrast Mode
Wind Gusting 00 knots
08
April 03, 2020 12:13 AM CDT
Weather Information
Wind Direction
  160 °
Wind Speed
  08 kt (9 mph)
Wind Gust
  00 kt (0 mph)
Altimeter
29.95 in
Visibility
10 SM
Temperature
14° C
57° F
Dewpoint
05° C
41° F
Humidity
55%
1hr Rain Fall
00.00 in.
24hr Rain Fall
00.00 in.
Sky Condition
Overcast @ 6,000 ft
VFR

METAR KRGK 030513Z AUTO 16008KT 10SM OVC060 14/05 A2995 RMK AO2

FAA Disclaimer: The data displayed is for advisory purposes only and is not to be used for flight planning or operations.